Time;durP1;ratioP1;P1;durP2;ratioP2;P2;SDS_P1;SDS_P2;PMS_P1;PMS_P2;Temp;Humidity;BMP_temperature;BMP_pressure;BME280_temperature;BME280_humidity;BME280_pressure;Samples;Min_cycle;Max_cycle;Signal;HPM_P1;HPM_P2
2022/09/19 00:01:27;;;;;;;3.35;1.05;;;12.50;99.70;;;;;;5067896;28;20088;-80
2022/09/19 00:03:59;;;;;;;2.90;1.02;;;12.50;99.70;;;;;;5068389;28;20025;-81
2022/09/19 00:06:27;;;;;;;2.05;1.00;;;12.50;99.60;;;;;;5066936;28;20039;-80
2022/09/19 00:08:55;;;;;;;1.88;0.90;;;12.50;99.50;;;;;;5047535;28;20024;-80
2022/09/19 00:11:21;;;;;;;1.90;1.10;;;12.40;99.40;;;;;;5082273;28;20236;-80
2022/09/19 00:13:49;;;;;;;2.42;1.00;;;12.40;99.40;;;;;;5058469;28;20259;-80
2022/09/19 00:16:30;;;;;;;2.13;0.85;;;12.40;99.30;;;;;;5051194;28;20103;-80
2022/09/19 00:18:59;;;;;;;3.25;1.00;;;12.40;99.40;;;;;;5055635;28;20025;-80
2022/09/19 00:21:34;;;;;;;2.55;1.10;;;12.40;99.50;;;;;;5067215;28;20136;-80
2022/09/19 00:26:47;;;;;;;1.80;0.88;;;12.40;99.90;;;;;;5076079;28;20030;-80
2022/09/19 00:29:15;;;;;;;3.50;1.00;;;12.40;99.90;;;;;;5059276;28;20174;-81
2022/09/19 00:31:43;;;;;;;1.63;1.00;;;12.40;99.90;;;;;;5060864;28;20020;-80
2022/09/19 00:34:09;;;;;;;1.98;1.00;;;12.40;99.90;;;;;;5032909;28;20655;-80
2022/09/19 00:36:37;;;;;;;2.63;0.90;;;12.40;99.90;;;;;;5055251;28;20447;-80
2022/09/19 00:39:04;;;;;;;3.05;1.38;;;12.40;99.90;;;;;;5064632;28;20048;-81
2022/09/19 00:41:30;;;;;;;1.67;0.68;;;12.50;99.90;;;;;;5069142;28;22571;-80
2022/09/19 00:43:59;;;;;;;2.83;0.90;;;12.50;99.90;;;;;;5075903;28;20017;-80
2022/09/19 00:46:27;;;;;;;2.10;0.85;;;12.50;99.90;;;;;;5057598;28;20036;-80
2022/09/19 00:49:02;;;;;;;2.08;0.80;;;12.50;99.90;;;;;;5056962;28;20039;-80
2022/09/19 00:51:33;;;;;;;1.70;0.88;;;12.50;99.90;;;;;;5057975;28;20056;-81
2022/09/19 00:54:07;;;;;;;2.30;1.00;;;12.50;99.90;;;;;;5039311;28;20047;-80
2022/09/19 00:56:34;;;;;;;2.07;0.80;;;12.50;99.90;;;;;;5065427;28;20042;-80
2022/09/19 00:59:02;;;;;;;2.25;0.80;;;12.40;99.80;;;;;;5066247;28;20085;-80
2022/09/19 01:01:28;;;;;;;1.02;0.70;;;12.40;99.60;;;;;;5065994;28;20055;-80
2022/09/19 01:03:55;;;;;;;1.67;0.88;;;12.40;99.50;;;;;;5075687;28;20019;-80
2022/09/19 01:06:55;;;;;;;1.90;0.90;;;12.40;99.40;;;;;;5064432;28;20035;-80
2022/09/19 01:09:36;;;;;;;2.03;0.70;;;12.30;99.20;;;;;;5074535;28;20039;-80
2022/09/19 01:12:31;;;;;;;1.55;0.77;;;12.30;99.20;;;;;;5065475;28;20596;-80
2022/09/19 01:15:20;;;;;;;1.20;0.60;;;12.30;99.20;;;;;;5077783;28;20504;-80
2022/09/19 01:18:01;;;;;;;1.48;0.93;;;12.20;99.00;;;;;;5073591;27;20504;-80
2022/09/19 01:20:35;;;;;;;1.10;0.70;;;12.20;99.00;;;;;;5080616;28;20860;-80
2022/09/19 01:23:28;;;;;;;0.90;0.70;;;12.10;98.90;;;;;;5062609;28;20157;-80
2022/09/19 01:26:19;;;;;;;3.17;0.70;;;12.10;98.90;;;;;;5070493;28;22098;-80
2022/09/19 01:29:00;;;;;;;1.50;0.60;;;12.00;98.90;;;;;;5067029;28;20038;-80
2022/09/19 01:31:29;;;;;;;1.60;0.60;;;12.00;98.80;;;;;;5076859;28;20084;-80
2022/09/19 01:34:11;;;;;;;1.45;0.70;;;11.90;98.80;;;;;;5079006;28;20475;-80
2022/09/19 01:36:46;;;;;;;1.80;0.53;;;11.90;98.80;;;;;;5039152;28;20583;-80
2022/09/19 01:39:17;;;;;;;2.08;0.80;;;11.90;98.90;;;;;;5064133;28;20035;-80
2022/09/19 01:41:50;;;;;;;1.38;0.70;;;11.90;99.10;;;;;;5052617;28;20028;-80
2022/09/19 01:44:22;;;;;;;1.88;1.00;;;11.90;99.40;;;;;;5087693;27;20485;-80
2022/09/19 01:47:07;;;;;;;1.98;0.70;;;11.90;99.80;;;;;;5081276;27;20046;-80
2022/09/19 01:49:54;;;;;;;2.37;0.70;;;11.80;99.90;;;;;;5085653;28;20039;-81
2022/09/19 01:52:23;;;;;;;1.55;0.63;;;11.90;99.90;;;;;;5063995;28;20033;-80
2022/09/19 01:55:06;;;;;;;2.20;0.70;;;11.90;99.90;;;;;;5063872;28;20651;-80
2022/09/19 01:57:45;;;;;;;1.70;0.70;;;11.90;99.90;;;;;;5074275;28;20039;-80
2022/09/19 02:00:16;;;;;;;1.20;0.80;;;12.00;99.90;;;;;;5066238;28;20016;-80
2022/09/19 02:03:12;;;;;;;1.97;0.80;;;12.10;99.90;;;;;;5066261;28;20035;-80
2022/09/19 02:05:52;;;;;;;2.47;0.80;;;12.10;99.90;;;;;;5046101;28;20032;-80
2022/09/19 02:08:31;;;;;;;1.30;0.63;;;12.20;99.90;;;;;;5069973;28;20109;-81
2022/09/19 02:11:05;;;;;;;1.58;1.00;;;12.20;99.90;;;;;;5089084;28;20247;-81
2022/09/19 02:13:34;;;;;;;3.40;1.10;;;12.30;99.90;;;;;;5058787;28;20016;-80
2022/09/19 02:16:24;;;;;;;1.60;0.73;;;12.30;99.90;;;;;;5045261;28;20604;-80
2022/09/19 02:18:54;;;;;;;1.98;0.77;;;12.30;99.90;;;;;;5051620;28;20017;-81
2022/09/19 02:21:47;;;;;;;2.55;0.80;;;12.40;99.90;;;;;;5082786;28;20028;-80
2022/09/19 02:24:16;;;;;;;1.20;0.80;;;12.40;99.90;;;;;;5067908;28;20151;-80
2022/09/19 02:26:45;;;;;;;2.15;0.82;;;12.50;99.90;;;;;;5079903;28;20028;-80
2022/09/19 02:29:14;;;;;;;1.83;1.10;;;12.50;99.90;;;;;;5069643;28;20042;-80
2022/09/19 02:31:40;;;;;;;1.98;0.70;;;12.50;99.90;;;;;;5055944;28;20331;-80
2022/09/19 02:34:07;;;;;;;3.42;0.80;;;12.60;99.90;;;;;;5080265;28;20252;-80
2022/09/19 02:36:33;;;;;;;1.67;0.70;;;12.60;99.90;;;;;;5075055;28;20598;-81
2022/09/19 02:39:06;;;;;;;2.03;0.73;;;12.60;99.90;;;;;;5057592;28;20040;-80
2022/09/19 02:41:51;;;;;;;1.30;0.80;;;12.60;99.90;;;;;;5058982;28;20488;-81
2022/09/19 02:44:30;;;;;;;2.73;0.90;;;12.60;99.90;;;;;;5074302;28;20254;-80
2022/09/19 02:47:08;;;;;;;4.30;1.00;;;12.70;99.90;;;;;;5077926;28;20132;-81
2022/09/19 02:49:52;;;;;;;1.75;0.70;;;12.70;99.90;;;;;;5047194;28;20039;-81
2022/09/19 02:52:27;;;;;;;1.30;0.90;;;12.70;99.90;;;;;;5075109;28;20044;-80
2022/09/19 02:55:01;;;;;;;1.67;0.80;;;12.70;99.90;;;;;;5062899;28;20571;-80
2022/09/19 02:57:29;;;;;;;1.33;0.90;;;12.70;99.90;;;;;;5064836;28;20036;-80
2022/09/19 02:59:59;;;;;;;2.88;0.90;;;12.70;99.90;;;;;;5058942;28;20431;-80
2022/09/19 03:02:33;;;;;;;1.52;1.05;;;12.80;99.90;;;;;;5072819;28;20040;-80
2022/09/19 03:05:19;;;;;;;2.58;1.00;;;12.80;99.90;;;;;;5072663;28;20398;-80
2022/09/19 03:07:53;;;;;;;2.22;0.98;;;12.80;99.90;;;;;;5057481;28;20397;-80
2022/09/19 03:10:24;;;;;;;2.87;0.90;;;12.80;99.90;;;;;;5079328;28;20228;-81
2022/09/19 03:12:54;;;;;;;1.67;0.82;;;12.80;99.90;;;;;;5062787;28;20145;-80
2022/09/19 03:15:30;;;;;;;2.13;0.77;;;12.80;99.90;;;;;;5064045;28;20031;-80
2022/09/19 03:17:56;;;;;;;2.33;0.90;;;12.80;99.90;;;;;;5063478;28;20028;-81
2022/09/19 03:20:23;;;;;;;2.08;0.82;;;12.80;99.90;;;;;;5057315;28;20024;-81
2022/09/19 03:22:49;;;;;;;1.37;0.87;;;12.70;99.90;;;;;;5068522;28;20728;-81
2022/09/19 03:25:15;;;;;;;2.97;0.90;;;12.70;99.90;;;;;;5064734;28;20287;-81
2022/09/19 03:27:41;;;;;;;2.45;1.00;;;12.70;99.90;;;;;;5063638;28;20028;-80
2022/09/19 03:30:13;;;;;;;3.08;0.90;;;12.70;99.90;;;;;;5074619;28;20036;-81
2022/09/19 03:32:41;;;;;;;1.47;0.80;;;12.60;99.90;;;;;;5070609;28;20488;-81
2022/09/19 03:35:07;;;;;;;2.80;1.00;;;12.60;99.90;;;;;;5066119;28;20473;-80
2022/09/19 03:37:33;;;;;;;1.75;0.90;;;12.60;99.90;;;;;;5059027;28;20027;-80
2022/09/19 03:40:00;;;;;;;1.98;0.73;;;12.60;99.90;;;;;;5062446;28;20028;-81
2022/09/19 03:42:27;;;;;;;2.60;1.05;;;12.50;99.90;;;;;;5068681;28;20042;-81
2022/09/19 03:44:53;;;;;;;1.50;0.70;;;12.50;99.90;;;;;;5058486;28;20229;-81
2022/09/19 03:47:21;;;;;;;2.90;1.02;;;12.50;99.90;;;;;;5077286;28;20474;-81
2022/09/19 03:49:49;;;;;;;1.17;0.70;;;12.50;99.90;;;;;;5059502;28;20113;-81
2022/09/19 03:52:16;;;;;;;2.22;0.77;;;12.40;99.90;;;;;;5069338;28;20082;-81
2022/09/19 03:54:43;;;;;;;1.88;0.90;;;12.40;99.90;;;;;;5034843;28;20097;-81
2022/09/19 03:57:09;;;;;;;2.80;0.70;;;12.30;99.90;;;;;;5059808;28;20090;-80
2022/09/19 03:59:36;;;;;;;1.67;0.70;;;12.30;99.80;;;;;;5074051;28;20020;-80
2022/09/19 04:02:02;;;;;;;3.13;0.90;;;12.30;99.80;;;;;;5054252;28;20202;-81
2022/09/19 04:04:27;;;;;;;1.77;0.90;;;12.20;99.70;;;;;;5069172;28;20058;-81
2022/09/19 04:06:53;;;;;;;1.50;0.70;;;12.10;99.70;;;;;;5082144;28;20086;-81
2022/09/19 04:09:18;;;;;;;2.78;0.82;;;12.10;99.70;;;;;;5078387;28;20504;-81
2022/09/19 04:11:44;;;;;;;2.67;0.80;;;12.10;99.70;;;;;;5053077;28;20059;-81
2022/09/19 04:14:09;;;;;;;1.98;0.90;;;12.00;99.60;;;;;;5053411;28;20028;-81
2022/09/19 04:16:35;;;;;;;1.43;0.80;;;12.00;99.60;;;;;;5059102;28;20031;-81
2022/09/19 04:19:01;;;;;;;3.87;1.00;;;12.00;99.60;;;;;;5056779;28;20195;-81
2022/09/19 04:21:27;;;;;;;1.65;0.80;;;11.90;99.60;;;;;;5077979;28;20320;-81
2022/09/19 04:23:55;;;;;;;1.60;0.60;;;11.90;99.60;;;;;;5053856;28;20245;-81
2022/09/19 04:26:21;;;;;;;2.45;0.85;;;11.80;99.50;;;;;;5049496;28;20024;-81
2022/09/19 04:28:47;;;;;;;1.65;0.80;;;11.80;99.50;;;;;;5063235;28;20028;-81
2022/09/19 04:31:13;;;;;;;1.27;0.70;;;11.80;99.50;;;;;;5059558;28;20028;-81
2022/09/19 04:33:39;;;;;;;2.63;0.90;;;11.70;99.60;;;;;;5055552;28;20063;-80
2022/09/19 04:36:05;;;;;;;2.30;0.80;;;11.70;99.60;;;;;;5068369;28;20305;-81
2022/09/19 04:38:32;;;;;;;1.05;0.80;;;11.70;99.60;;;;;;5069678;28;20512;-81
2022/09/19 04:40:57;;;;;;;1.80;0.70;;;11.70;99.60;;;;;;5080569;28;20043;-81
2022/09/19 04:43:26;;;;;;;2.78;0.80;;;11.70;99.60;;;;;;5058526;28;20484;-81
2022/09/19 04:45:54;;;;;;;1.88;0.80;;;11.60;99.60;;;;;;5070067;28;20119;-81
2022/09/19 04:48:20;;;;;;;1.85;0.60;;;11.60;99.50;;;;;;5065590;28;20043;-81
2022/09/19 04:50:50;;;;;;;1.17;0.80;;;11.60;99.50;;;;;;5079877;28;20027;-81
2022/09/19 04:53:23;;;;;;;3.53;1.20;;;11.50;99.30;;;;;;5078619;28;20036;-81
2022/09/19 04:55:53;;;;;;;1.95;0.80;;;11.50;99.30;;;;;;5077195;28;20309;-81
2022/09/19 04:58:20;;;;;;;1.05;0.60;;;11.50;99.30;;;;;;5053056;28;20025;-81
2022/09/19 05:00:53;;;;;;;0.70;0.70;;;11.40;99.30;;;;;;5078432;28;20016;-80
2022/09/19 05:03:20;;;;;;;1.27;0.67;;;11.40;99.10;;;;;;5060101;28;20316;-81
2022/09/19 05:05:50;;;;;;;2.38;0.90;;;11.40;99.10;;;;;;5059481;28;20645;-81
2022/09/19 05:08:24;;;;;;;1.60;0.73;;;11.30;99.10;;;;;;5055729;28;20519;-81
2022/09/19 05:10:51;;;;;;;1.65;0.80;;;11.30;99.10;;;;;;5065741;28;20195;-81
2022/09/19 05:13:17;;;;;;;3.00;1.10;;;11.30;99.10;;;;;;5037486;28;20074;-81
2022/09/19 05:15:44;;;;;;;2.57;0.80;;;11.30;99.10;;;;;;5075702;28;20646;-81
2022/09/19 05:18:11;;;;;;;1.58;0.77;;;11.30;99.20;;;;;;5054997;28;20099;-81
2022/09/19 05:20:37;;;;;;;1.45;0.80;;;11.20;99.20;;;;;;5071601;28;20478;-81
2022/09/19 05:23:04;;;;;;;2.93;0.93;;;11.20;99.30;;;;;;5055482;28;20677;-81
2022/09/19 05:25:34;;;;;;;1.48;0.80;;;11.20;99.40;;;;;;5078014;28;20028;-81
2022/09/19 05:28:04;;;;;;;3.30;1.00;;;11.20;99.50;;;;;;5033686;28;20040;-81
2022/09/19 05:30:32;;;;;;;3.00;1.20;;;11.20;99.60;;;;;;5070628;28;20058;-81
2022/09/19 05:32:59;;;;;;;2.72;0.85;;;11.20;99.80;;;;;;5066098;28;20470;-81
2022/09/19 05:35:26;;;;;;;3.23;0.80;;;11.20;99.90;;;;;;5060151;28;20032;-81
2022/09/19 05:37:52;;;;;;;2.95;0.80;;;11.20;99.90;;;;;;5048308;28;20669;-81
2022/09/19 05:40:18;;;;;;;1.98;0.90;;;11.20;99.90;;;;;;5074945;28;20026;-81
2022/09/19 05:42:49;;;;;;;2.38;0.80;;;11.20;99.90;;;;;;5055132;27;20778;-81
2022/09/19 05:45:15;;;;;;;2.80;0.98;;;11.30;99.90;;;;;;5042333;28;20016;-81
2022/09/19 05:47:41;;;;;;;1.90;0.87;;;11.30;99.90;;;;;;5076747;28;20578;-81
2022/09/19 05:50:08;;;;;;;0.90;0.70;;;11.30;99.90;;;;;;5060129;28;20021;-81
2022/09/19 05:55:26;;;;;;;2.38;0.80;;;11.40;99.90;;;;;;5006365;28;20043;-81
2022/09/19 05:57:56;;;;;;;2.22;0.80;;;11.40;99.90;;;;;;5071261;28;20060;-83
2022/09/19 06:00:25;;;;;;;1.40;0.73;;;11.50;99.90;;;;;;5063362;28;20695;-83
2022/09/19 06:03:02;;;;;;;0.93;0.70;;;11.50;99.90;;;;;;5063189;28;20017;-83
2022/09/19 06:05:33;;;;;;;2.60;0.80;;;11.50;99.90;;;;;;5049037;28;20070;-83
2022/09/19 06:07:59;;;;;;;1.65;1.00;;;11.60;99.90;;;;;;5044411;28;20075;-83
2022/09/19 06:10:27;;;;;;;3.72;1.10;;;11.70;99.90;;;;;;5024078;28;20132;-82
2022/09/19 06:12:56;;;;;;;3.42;1.00;;;11.70;99.90;;;;;;5059591;28;20115;-81
2022/09/19 06:15:22;;;;;;;3.57;0.97;;;11.80;99.90;;;;;;5062371;28;20051;-81
2022/09/19 06:17:57;;;;;;;3.13;1.10;;;11.90;99.90;;;;;;5039449;28;20031;-81
2022/09/19 06:20:23;;;;;;;2.80;1.00;;;12.00;99.90;;;;;;5047534;28;20028;-81
2022/09/19 06:22:55;;;;;;;2.60;0.90;;;12.00;99.90;;;;;;5062189;28;20027;-85
2022/09/19 06:25:21;;;;;;;2.13;0.70;;;12.10;99.90;;;;;;5049832;28;20245;-82
2022/09/19 06:27:59;;;;;;;1.87;0.80;;;12.10;99.90;;;;;;5070502;28;20096;-82
2022/09/19 06:30:26;;;;;;;2.60;0.93;;;12.20;99.90;;;;;;5056202;28;20039;-82
2022/09/19 06:32:52;;;;;;;2.72;1.00;;;12.20;99.90;;;;;;5061893;28;20050;-82
2022/09/19 06:35:23;;;;;;;2.35;1.00;;;12.30;99.90;;;;;;5055678;28;20428;-81
2022/09/19 06:37:49;;;;;;;2.40;0.83;;;12.40;99.90;;;;;;5061282;28;20056;-82
2022/09/19 06:40:21;;;;;;;3.42;1.20;;;12.40;99.90;;;;;;5056491;28;20107;-81
2022/09/19 06:42:46;;;;;;;3.88;1.10;;;12.40;99.90;;;;;;5063308;28;20114;-82
2022/09/19 06:45:12;;;;;;;2.17;1.03;;;12.50;99.90;;;;;;5058144;28;20070;-81
2022/09/19 06:47:37;;;;;;;3.17;0.93;;;12.50;99.90;;;;;;5060303;28;20071;-82
2022/09/19 06:50:04;;;;;;;2.80;1.00;;;12.60;99.90;;;;;;5047677;28;20031;-82
2022/09/19 06:52:30;;;;;;;2.22;1.00;;;12.60;99.90;;;;;;5058950;28;20087;-82
2022/09/19 06:54:57;;;;;;;3.73;0.90;;;12.60;99.90;;;;;;5032862;28;20405;-81
2022/09/19 06:57:23;;;;;;;3.47;1.40;;;12.60;99.90;;;;;;5028288;28;20726;-81
2022/09/19 06:59:49;;;;;;;3.35;1.00;;;12.60;99.90;;;;;;5050593;28;20039;-82
2022/09/19 07:02:15;;;;;;;2.47;1.00;;;12.60;99.90;;;;;;5055896;28;20402;-82
2022/09/19 07:04:41;;;;;;;3.53;1.17;;;12.60;99.90;;;;;;5077054;28;20270;-81
2022/09/19 07:07:06;;;;;;;2.85;0.90;;;12.80;99.90;;;;;;5060766;28;20035;-81
2022/09/19 07:09:32;;;;;;;3.40;0.87;;;12.80;99.90;;;;;;5044594;28;20043;-80
2022/09/19 07:11:57;;;;;;;2.40;0.93;;;12.90;99.90;;;;;;5062679;28;20698;-81
2022/09/19 07:14:24;;;;;;;2.80;1.10;;;13.00;99.90;;;;;;5051860;28;20211;-81
2022/09/19 07:16:50;;;;;;;2.90;1.10;;;13.10;99.90;;;;;;5036360;28;20029;-81
2022/09/19 07:19:16;;;;;;;3.60;0.98;;;13.20;99.90;;;;;;5037356;28;20396;-81
2022/09/19 07:21:43;;;;;;;2.77;1.07;;;13.30;99.90;;;;;;5054881;28;20062;-80
2022/09/19 07:24:09;;;;;;;2.20;1.17;;;13.40;99.90;;;;;;5054065;28;20097;-81
2022/09/19 07:26:35;;;;;;;3.30;1.00;;;13.60;99.90;;;;;;5063832;28;20243;-80
2022/09/19 07:29:00;;;;;;;4.83;1.10;;;14.00;99.90;;;;;;5046269;28;20332;-80
2022/09/19 07:31:27;;;;;;;4.38;0.98;;;14.40;99.90;;;;;;5052724;28;20685;-81
2022/09/19 07:33:53;;;;;;;4.25;1.30;;;14.90;99.90;;;;;;5058599;28;20027;-81
2022/09/19 07:36:21;;;;;;;2.85;0.90;;;15.50;99.90;;;;;;5065175;28;20028;-81
2022/09/19 07:38:50;;;;;;;2.37;1.00;;;16.10;99.90;;;;;;5076322;28;20907;-82
2022/09/19 07:41:16;;;;;;;1.88;1.23;;;16.60;99.90;;;;;;5064899;28;20029;-81
2022/09/19 07:43:48;;;;;;;2.95;0.98;;;17.00;99.90;;;;;;5051132;28;20115;-80
2022/09/19 07:46:15;;;;;;;3.17;0.90;;;17.20;99.90;;;;;;5070147;28;20024;-80
2022/09/19 07:48:42;;;;;;;3.55;1.05;;;17.40;99.90;;;;;;5051414;28;20957;-80
2022/09/19 07:51:08;;;;;;;3.27;0.90;;;17.50;99.90;;;;;;5080065;28;20320;-81
2022/09/19 07:53:34;;;;;;;2.25;1.10;;;17.50;99.90;;;;;;5041381;28;20229;-81
2022/09/19 07:56:00;;;;;;;4.85;1.00;;;17.50;99.90;;;;;;5075650;28;20028;-80
2022/09/19 07:58:27;;;;;;;3.42;0.95;;;17.50;99.90;;;;;;5054290;28;20034;-82
2022/09/19 08:00:57;;;;;;;2.85;0.90;;;17.50;99.90;;;;;;5065536;28;20016;-80
2022/09/19 08:03:22;;;;;;;3.03;1.00;;;17.50;99.90;;;;;;5061881;28;20535;-81
2022/09/19 08:05:51;;;;;;;3.95;1.30;;;17.60;99.90;;;;;;5074344;28;20255;-80
2022/09/19 08:08:19;;;;;;;3.75;1.00;;;17.50;99.90;;;;;;5081100;28;20107;-81
2022/09/19 08:10:45;;;;;;;3.30;1.00;;;17.50;99.90;;;;;;5067542;28;20404;-80
2022/09/19 08:13:13;;;;;;;2.55;1.20;;;17.60;99.90;;;;;;5070760;28;20232;-81
2022/09/19 08:15:39;;;;;;;4.15;1.20;;;17.60;99.90;;;;;;5053482;28;20583;-81
2022/09/19 08:18:13;;;;;;;3.78;0.90;;;17.70;99.90;;;;;;5047924;28;20020;-81
2022/09/19 08:20:39;;;;;;;4.05;1.15;;;17.80;99.90;;;;;;5048437;28;20032;-81
2022/09/19 08:23:09;;;;;;;3.13;1.07;;;17.90;99.90;;;;;;5084260;28;20314;-81
2022/09/19 08:25:37;;;;;;;6.03;1.10;;;18.00;99.90;;;;;;5072727;28;20138;-81
2022/09/19 08:28:04;;;;;;;4.45;1.20;;;18.10;99.90;;;;;;5074630;28;20034;-80
2022/09/19 08:30:31;;;;;;;6.22;1.10;;;18.20;99.90;;;;;;5063617;28;20031;-81
2022/09/19 08:33:00;;;;;;;2.97;1.20;;;18.20;99.90;;;;;;5074929;28;20027;-81
2022/09/19 08:35:27;;;;;;;4.00;1.10;;;18.40;99.90;;;;;;5051449;28;20096;-80
2022/09/19 08:38:03;;;;;;;3.35;1.10;;;18.50;99.90;;;;;;5067687;28;20036;-81
2022/09/19 08:40:40;;;;;;;3.60;0.93;;;18.70;99.90;;;;;;5055750;28;20465;-82
2022/09/19 08:43:18;;;;;;;1.55;0.73;;;18.90;99.90;;;;;;5064791;28;20043;-82
2022/09/19 08:46:25;;;;;;;6.10;1.00;;;19.20;99.90;;;;;;5033591;28;20028;-81
2022/09/19 08:49:16;;;;;;;2.50;0.97;;;19.50;99.90;;;;;;5027063;28;20048;-80
2022/09/19 08:51:51;;;;;;;3.20;1.05;;;19.70;99.90;;;;;;5038691;28;20127;-80
2022/09/19 08:54:27;;;;;;;3.65;0.90;;;19.90;99.90;;;;;;5057163;28;20594;-79
2022/09/19 08:56:54;;;;;;;2.47;1.10;;;19.90;99.90;;;;;;5038314;28;20784;-80
2022/09/19 08:59:23;;;;;;;1.88;0.80;;;20.00;99.90;;;;;;5052174;28;20031;-80
2022/09/19 09:01:53;;;;;;;3.30;0.90;;;20.00;99.90;;;;;;5051993;28;20032;-81
2022/09/19 09:04:32;;;;;;;3.15;1.00;;;20.10;99.90;;;;;;5059362;28;20020;-80
2022/09/19 09:07:25;;;;;;;2.15;0.80;;;20.10;99.90;;;;;;5053659;28;20242;-80
2022/09/19 09:10:30;;;;;;;2.63;0.90;;;20.10;99.90;;;;;;5063357;28;20122;-80
2022/09/19 09:13:17;;;;;;;2.35;0.70;;;20.20;99.00;;;;;;5061754;28;20028;-80
2022/09/19 09:16:19;;;;;;;2.10;0.80;;;20.20;98.60;;;;;;5035703;28;20079;-80
2022/09/19 09:19:05;;;;;;;1.73;0.70;;;20.20;98.20;;;;;;5064333;28;20039;-80
2022/09/19 09:21:50;;;;;;;3.17;0.80;;;20.10;98.70;;;;;;5059797;28;20028;-80
2022/09/19 09:24:32;;;;;;;2.83;0.70;;;20.10;99.90;;;;;;5077804;28;20081;-80
2022/09/19 09:27:01;;;;;;;2.40;0.80;;;20.00;98.60;;;;;;5062791;28;20470;-79
2022/09/19 09:29:38;;;;;;;2.63;0.80;;;20.00;99.90;;;;;;5065361;28;20054;-80
2022/09/19 09:32:07;;;;;;;3.05;0.98;;;19.90;99.60;;;;;;5048105;28;20612;-80
2022/09/19 09:34:41;;;;;;;2.47;0.77;;;19.90;99.70;;;;;;5063248;28;20025;-79
2022/09/19 09:37:16;;;;;;;2.35;0.77;;;19.90;99.80;;;;;;5054360;28;20042;-80
2022/09/19 09:40:09;;;;;;;2.75;0.65;;;19.90;99.40;;;;;;5074133;28;20663;-79
2022/09/19 09:42:52;;;;;;;1.00;0.60;;;19.90;99.90;;;;;;5079258;27;20021;-79
2022/09/19 09:45:33;;;;;;;2.83;0.82;;;20.00;99.90;;;;;;5070262;28;20025;-80
2022/09/19 09:48:34;;;;;;;2.95;0.70;;;20.00;99.90;;;;;;5048862;28;20040;-79
2022/09/19 09:51:00;;;;;;;1.73;0.88;;;20.20;99.90;;;;;;5049878;28;20556;-80
2022/09/19 09:53:53;;;;;;;3.97;0.80;;;20.40;99.90;;;;;;5067265;28;20505;-80
2022/09/19 09:56:43;;;;;;;2.25;0.60;;;20.60;99.90;;;;;;5077971;28;20519;-80
2022/09/19 10:05:36;;;;;;;4.53;1.02;;;21.50;99.90;;;;;;5067199;28;20693;-80
2022/09/19 10:08:14;;;;;;;4.57;0.93;;;22.00;99.90;;;;;;5061407;28;20508;-80
2022/09/19 10:10:41;;;;;;;2.78;0.73;;;22.60;99.90;;;;;;5063444;28;20115;-81
2022/09/19 10:13:28;;;;;;;1.98;0.80;;;23.00;99.90;;;;;;5040608;28;20016;-81
2022/09/19 10:16:02;;;;;;;2.50;1.00;;;23.40;99.00;;;;;;5061099;28;20117;-80
2022/09/19 10:18:42;;;;;;;2.05;0.80;;;23.70;99.90;;;;;;5018228;28;20024;-80
2022/09/19 10:21:08;;;;;;;4.47;0.83;;;23.90;99.90;;;;;;5062204;28;20063;-80
2022/09/19 10:23:34;;;;;;;2.45;0.80;;;24.10;99.90;;;;;;5045699;28;20351;-79
2022/09/19 10:26:03;;;;;;;3.47;0.80;;;24.20;99.90;;;;;;5056768;28;20313;-80
2022/09/19 10:28:43;;;;;;;2.60;0.80;;;24.50;99.90;;;;;;5057008;28;20594;-80
2022/09/19 10:31:39;;;;;;;2.90;0.90;;;24.80;99.20;;;;;;5066812;28;20009;-80
2022/09/19 10:34:34;;;;;;;2.03;1.00;;;25.20;98.60;;;;;;5078021;28;20026;-80
2022/09/19 10:37:03;;;;;;;2.75;1.25;;;25.70;98.80;;;;;;5071458;28;20548;-80
2022/09/19 10:39:29;;;;;;;3.60;1.10;;;26.20;99.90;;;;;;5038734;28;20070;-80
2022/09/19 10:41:54;;;;;;;2.53;0.90;;;26.70;99.90;;;;;;5062186;28;20020;-80
2022/09/19 10:44:24;;;;;;;3.10;0.75;;;27.10;99.90;;;;;;5043174;28;20028;-81
2022/09/19 10:46:56;;;;;;;4.37;0.80;;;27.40;97.10;;;;;;5061778;28;20364;-80
2022/09/19 10:49:25;;;;;;;2.55;0.90;;;27.50;94.10;;;;;;5055684;28;20035;-80
2022/09/19 10:51:52;;;;;;;2.30;0.90;;;27.50;93.70;;;;;;5057057;28;20023;-81
2022/09/19 10:54:35;;;;;;;1.90;0.80;;;27.20;93.50;;;;;;5042385;28;20024;-80
2022/09/19 10:57:04;;;;;;;2.17;0.88;;;26.90;90.00;;;;;;5061300;28;20032;-81
2022/09/19 10:59:35;;;;;;;2.10;0.80;;;26.60;92.20;;;;;;5057511;28;20017;-80
2022/09/19 11:02:08;;;;;;;2.15;0.70;;;26.30;91.30;;;;;;5064680;28;20490;-81
2022/09/19 11:04:35;;;;;;;3.17;0.65;;;25.80;89.70;;;;;;5036798;28;20025;-80
2022/09/19 11:07:17;;;;;;;2.92;0.80;;;25.40;90.80;;;;;;5054705;28;20032;-80
2022/09/19 11:09:44;;;;;;;4.50;0.82;;;24.80;86.70;;;;;;5030479;28;20110;-80
2022/09/19 11:12:16;;;;;;;2.70;0.83;;;24.30;90.70;;;;;;5058213;28;20662;-79
2022/09/19 11:14:46;;;;;;;2.38;0.85;;;23.90;91.10;;;;;;5069300;27;20028;-80
2022/09/19 11:17:38;;;;;;;2.42;0.70;;;23.50;91.30;;;;;;5057030;28;22032;-79
2022/09/19 11:20:25;;;;;;;1.60;0.60;;;23.10;92.20;;;;;;5025944;28;20044;-79
2022/09/19 11:23:07;;;;;;;1.90;0.82;;;22.80;92.20;;;;;;5047353;28;20019;-79
2022/09/19 11:25:48;;;;;;;2.30;0.73;;;22.70;96.90;;;;;;5053290;28;20033;-80
2022/09/19 11:28:26;;;;;;;2.88;0.80;;;22.70;96.40;;;;;;5066670;28;20031;-81
2022/09/19 11:31:05;;;;;;;4.55;0.70;;;22.80;97.90;;;;;;5072396;28;20111;-80
2022/09/19 11:33:38;;;;;;;2.67;0.70;;;23.10;97.50;;;;;;5073839;28;20044;-79
2022/09/19 11:36:14;;;;;;;3.08;1.00;;;23.20;99.00;;;;;;5047773;28;20040;-79
2022/09/19 11:38:53;;;;;;;1.90;0.77;;;23.30;96.60;;;;;;5037011;28;20274;-78
2022/09/19 11:41:51;;;;;;;2.20;1.00;;;23.30;96.50;;;;;;5071593;28;20016;-79
2022/09/19 11:44:55;;;;;;;2.97;1.00;;;23.20;93.70;;;;;;5071208;28;20035;-79
2022/09/19 11:47:44;;;;;;;3.03;0.85;;;23.00;92.30;;;;;;5068862;28;20046;-79
2022/09/19 11:50:20;;;;;;;1.65;0.70;;;22.80;91.70;;;;;;5050489;28;20038;-79
2022/09/19 11:53:18;;;;;;;3.10;0.90;;;22.60;94.60;;;;;;5040820;28;20103;-79
2022/09/19 11:56:13;;;;;;;3.30;0.70;;;22.40;92.50;;;;;;5040210;28;20400;-80
2022/09/19 11:59:17;;;;;;;2.70;0.82;;;22.20;92.70;;;;;;5069421;28;20253;-80
2022/09/19 12:02:01;;;;;;;2.53;1.00;;;22.00;93.50;;;;;;5051825;28;20110;-79
2022/09/19 12:05:01;;;;;;;1.98;1.00;;;21.80;93.40;;;;;;5065342;28;20718;-79
2022/09/19 12:07:52;;;;;;;2.30;1.00;;;21.70;93.70;;;;;;5032218;28;20048;-79
2022/09/19 12:10:39;;;;;;;2.75;0.80;;;21.60;95.70;;;;;;5052950;28;20123;-79
2022/09/19 12:13:42;;;;;;;3.80;1.10;;;21.50;94.50;;;;;;5067478;28;20109;-79
2022/09/19 12:16:15;;;;;;;3.00;0.80;;;21.40;94.10;;;;;;5089134;28;20050;-79
2022/09/19 12:18:50;;;;;;;2.72;0.90;;;21.40;97.00;;;;;;5066035;28;20386;-79
2022/09/19 12:21:19;;;;;;;2.40;0.90;;;21.50;98.00;;;;;;5072018;28;20024;-79
2022/09/19 12:26:43;;;;;;;5.07;0.90;;;22.10;99.90;;;;;;5048907;28;20048;-80
2022/09/19 12:29:55;;;;;;;3.55;1.00;;;22.60;99.90;;;;;;5059283;28;20021;-80
2022/09/19 12:32:20;;;;;;;3.72;0.90;;;23.30;99.90;;;;;;5037870;28;20036;-80
2022/09/19 12:35:01;;;;;;;1.90;0.90;;;23.80;99.90;;;;;;5063542;28;20059;-79
2022/09/19 12:37:56;;;;;;;4.60;1.00;;;24.30;99.90;;;;;;5064677;28;20020;-80
2022/09/19 12:40:56;;;;;;;2.22;0.82;;;24.80;97.60;;;;;;5057162;28;20117;-81
2022/09/19 12:43:38;;;;;;;3.03;1.20;;;25.30;94.80;;;;;;5055917;28;20035;-81
2022/09/19 12:46:31;;;;;;;2.63;0.98;;;25.70;95.00;;;;;;5068725;28;20035;-81
2022/09/19 12:49:16;;;;;;;3.05;0.90;;;26.10;92.90;;;;;;5071382;28;20732;-81
2022/09/19 12:52:17;;;;;;;2.92;1.08;;;26.50;93.30;;;;;;5031403;28;20036;-81
2022/09/19 12:54:52;;;;;;;3.53;0.90;;;26.90;93.30;;;;;;5044500;28;20040;-81
2022/09/19 12:57:35;;;;;;;3.23;1.00;;;27.20;96.70;;;;;;5058495;28;20032;-82
2022/09/19 13:00:01;;;;;;;2.50;0.90;;;27.50;94.00;;;;;;5063020;28;20574;-81
2022/09/19 13:02:29;;;;;;;3.35;1.00;;;27.80;96.40;;;;;;5064174;28;20111;-82
2022/09/19 13:05:05;;;;;;;2.92;1.00;;;28.00;94.30;;;;;;5063433;28;20032;-83
2022/09/19 13:07:45;;;;;;;1.43;0.60;;;28.20;94.40;;;;;;5053163;28;20033;-82
2022/09/19 13:10:26;;;;;;;1.60;0.60;;;28.40;91.00;;;;;;5021948;28;20127;-83
2022/09/19 13:13:04;;;;;;;2.08;0.75;;;28.40;91.10;;;;;;5065371;28;20639;-82
2022/09/19 13:15:32;;;;;;;2.20;0.60;;;28.20;85.40;;;;;;5072733;28;20564;-83
2022/09/19 13:23:32;;;;;;;2.10;0.70;;;27.10;86.00;;;;;;5054089;28;20197;-82
2022/09/19 13:26:17;;;;;;;1.63;0.82;;;26.70;86.30;;;;;;5051139;28;20028;-83
2022/09/19 13:28:51;;;;;;;3.85;0.90;;;26.40;82.80;;;;;;5054818;28;20031;-83
2022/09/19 13:31:18;;;;;;;4.15;1.00;;;26.20;84.40;;;;;;5091368;27;20035;-83
2022/09/19 13:33:52;;;;;;;2.67;0.90;;;26.20;91.60;;;;;;5060178;28;20718;-83
2022/09/19 13:36:17;;;;;;;1.30;0.70;;;26.10;91.40;;;;;;5073253;28;20032;-82
2022/09/19 13:38:49;;;;;;;3.30;0.73;;;26.10;90.90;;;;;;5043682;28;20568;-82
2022/09/19 13:41:26;;;;;;;5.67;0.77;;;25.90;89.30;;;;;;5043288;28;20116;-84